Flight Track Log - Related Links

Times and Time Zones

All times are in EDT time to prevent confusion due to time zone crossing. See the SWA109 flight status page for this flight to view local times or setup timezone preferences in your user account.

Time Position Orientation Groundspeed Altitude Reporting Facility
EDT Latitude Longitude Course Direction KTS MPH feet Rate Location/Type
Sun 04:43:32 PM 36.0747 -115.1819 267° West 188 216 3,200  Level Los Angeles Center
Sun 04:44:15 PM 36.0728 -115.2331 267° West 232 267 4,700 2,082 Climbing Los Angeles Center
Sun 04:45:10 PM 36.0264 -115.2731 215° Southwest 257 296 6,600 2,667 Climbing Los Angeles Center
Sun 04:46:12 PM 35.9522 -115.2858 188° South 264 304 9,900 2,032 Climbing Los Angeles Center
Sun 04:47:14 PM 35.8675 -115.2889 182° South 286 329 10,800 1,824 Climbing Los Angeles Center
Sun 04:48:17 PM 35.7700 -115.2894 180° South 331 381 13,700 2,928 Climbing Los Angeles Center
Sun 04:49:19 PM 35.6622 -115.3147 191° South 340 391 16,900 2,710 Climbing Los Angeles Center
Sun 04:50:21 PM 35.6017 -115.3969 228° Southwest 321 369 19,300 1,984 Climbing Los Angeles Center
Sun 04:51:23 PM 35.5389 -115.4806 227° Southwest 327 376 21,000 1,742 Climbing Los Angeles Center
Sun 04:52:25 PM 35.4742 -115.5686 228° Southwest 342 394 22,900 1,645 Climbing Los Angeles Center
Sun 04:53:27 PM 35.4081 -115.6594 228° Southwest 351 404 24,400 1,500 Climbing Los Angeles Center
Sun 04:54:29 PM 35.3394 -115.7506 227° Southwest 361 415 26,000 1,694 Climbing Los Angeles Center
Sun 04:55:31 PM 35.2706 -115.8417 227° Southwest 363 418 27,900 968 Climbing Los Angeles Center
Sun 04:56:33 PM 35.1889 -115.9522 228° Southwest 364 419 28,000 48 Climbing Los Angeles Center
Sun 04:57:35 PM 35.1181 -116.0417 226° Southwest 365 420 28,000  Level Los Angeles Center
Sun 04:58:38 PM 35.0486 -116.1344 228° Southwest 368 423 28,000  Level Los Angeles Center
Sun 04:59:40 PM 34.9764 -116.2281 227° Southwest 375 432 28,000  Level Los Angeles Center
Sun 05:00:42 PM 34.9017 -116.3242 227° Southwest 384 442 28,000  Level Los Angeles Center
Sun 05:01:44 PM 34.8236 -116.4258 227° Southwest 401 461 28,000 -48 Level Los Angeles Center
Sun 05:02:46 PM 34.7314 -116.5242 221° Southwest 437 503 27,900 -629 Descending Los Angeles Center
Sun 05:03:48 PM 34.6164 -116.6292 217° Southwest 431 496 26,700 -1,161 Descending Los Angeles Center
Sun 05:04:50 PM 34.5306 -116.7136 219° Southwest 398 458 25,500 -1,056 Descending Los Angeles Center
Sun 05:05:53 PM 34.4458 -116.7872 216° Southwest 380 437 24,500 -968 Descending Los Angeles Center
Sun 05:06:54 PM 34.3650 -116.8644 218° Southwest 371 427 23,500 -968 Descending Los Angeles Center
Sun 05:07:57 PM 34.2833 -116.9425 218° Southwest 372 428 22,500 -1,152 Descending Los Angeles Center
Sun 05:08:59 PM 34.2022 -117.0181 218° Southwest 369 425 21,100 -1,742 Descending Los Angeles Center
Sun 05:10:01 PM 34.1122 -117.1050 219° Southwest 351 404 18,900 -1,963 Descending Los Angeles Center
Sun 05:10:46 PM 34.0833 -117.1833 246° West 324 373 17,600 -1,714 Descending Southern California TRACON
Sun 05:11:46 PM 34.0500 -117.2833 248° West 317 365 15,900 -1,476 Descending Southern California TRACON
Sun 05:12:52 PM 34.0333 -117.3833 259° West 313 360 14,500 -1,143 Descending Southern California TRACON
Sun 05:13:52 PM 34.0167 -117.4833 259° West 288 331 13,500 -1,200 Descending Southern California TRACON
Sun 05:14:52 PM 34.0167 -117.5833 270° West 333 383 12,100 -1,488 Descending Southern California TRACON
Sun 05:15:53 PM 34.0000 -117.6833 259° West 267 307 10,500 -1,388 Descending Southern California TRACON
Sun 05:16:53 PM 34.0000 -117.7667 270° West 268 308 9,300 -1,100 Descending Southern California TRACON
Sun 05:17:53 PM 33.9833 -117.8667 259° West 278 320 8,300 -1,200 Descending Southern California TRACON
Sun 05:18:53 PM 33.9833 -117.9500 270° West 271 312 6,900 -1,289 Descending Southern California TRACON
Sun 05:19:54 PM 33.9667 -118.0333 256° West 255 293 5,700 -1,289 Descending Southern California TRACON
Sun 05:20:54 PM 33.9667 -118.1167 270° West 252 290 4,300 -1,333 Descending Southern California TRACON
Sun 05:21:24 PM 33.9611 -118.1594 261° West 254 292 3,700 -1,174 Descending Los Angeles Center
Sun 05:22:26 PM 33.9528 -118.2378 263° West 244 281 2,500 -1,016 Descending Los Angeles Center
Sun 05:23:28 PM 33.9456 -118.2964 262° West 200 230 1,600 -774 Descending Los Angeles Center
Sun 05:24:30 PM 33.9414 -118.3442 264° West 166 191 900 -677 Descending Los Angeles Center
Sun 05:25:32 PM 33.9378 -118.3939 265° West 152 175 200 -677 Descending Los Angeles Center
Sun 05:27:00 PM 33.9333 -118.4000 259° West  Level FlightAware Approximate
Sun 05:34:00 PM 33.9425 -118.4081 259° West  Level Estimated

Login

Don't have an account? Register now (free) for customized features, flight alerts, and more!